Airport Name : Corumba Intl

Other Name : Corumba Intl

ICAO : SBCR

IATA : CMG

FAA :

Latitude : -19.011931

Longitude : -57.673053

Country : Brazil

Local Date and Time : 01 Mar 2021 08:58

 

TAF (Terminal Aerodrome Forecast)

TAF SBCR 011000Z 0112/0212 04005KT 8000 NSC TN25/0112Z TX33/0118Z BECMG 0113/0115 10007KT SCT030 TEMPO 0118/0121 33005KT SCT030 FEW040TCU BECMG 0121/0123 04003KT CAVOK RMK PGD

 

METAR (METeorological Aerodrome Report)

SBCR 011200Z 09009KT 9999 FEW020 27/24 Q1007

SBCR 011100Z 11011KT CAVOK 26/23 Q1007

To Charter a Jet Click here.